sensor_id;sensor_type;location;lat;lon;timestamp;P1;durP1;ratioP1;P2;durP2;ratioP2
2672;SDS011;1346;51.558;6.996;2022-11-20T00:01:32;29.27;;;26.08;;
2672;SDS011;1346;51.558;6.996;2022-11-20T00:03:59;29.13;;;24.27;;
2672;SDS011;1346;51.558;6.996;2022-11-20T00:06:27;30.75;;;25.42;;
2672;SDS011;1346;51.558;6.996;2022-11-20T00:08:55;28.90;;;24.55;;
2672;SDS011;1346;51.558;6.996;2022-11-20T00:11:27;29.67;;;26.48;;
2672;SDS011;1346;51.558;6.996;2022-11-20T00:13:56;29.95;;;24.45;;
2672;SDS011;1346;51.558;6.996;2022-11-20T00:16:25;28.85;;;24.52;;
2672;SDS011;1346;51.558;6.996;2022-11-20T00:18:55;32.58;;;26.13;;
2672;SDS011;1346;51.558;6.996;2022-11-20T00:21:23;31.13;;;25.52;;
2672;SDS011;1346;51.558;6.996;2022-11-20T00:23:54;30.08;;;25.95;;
2672;SDS011;1346;51.558;6.996;2022-11-20T00:26:22;28.77;;;24.98;;
2672;SDS011;1346;51.558;6.996;2022-11-20T00:28:52;31.95;;;27.27;;
2672;SDS011;1346;51.558;6.996;2022-11-20T00:31:21;31.85;;;26.58;;
2672;SDS011;1346;51.558;6.996;2022-11-20T00:33:49;28.85;;;25.25;;
2672;SDS011;1346;51.558;6.996;2022-11-20T00:36:16;30.23;;;25.77;;
2672;SDS011;1346;51.558;6.996;2022-11-20T00:38:45;28.92;;;25.52;;
2672;SDS011;1346;51.558;6.996;2022-11-20T00:41:15;32.08;;;25.08;;
2672;SDS011;1346;51.558;6.996;2022-11-20T00:43:42;32.25;;;26.17;;
2672;SDS011;1346;51.558;6.996;2022-11-20T00:46:09;30.67;;;24.80;;
2672;SDS011;1346;51.558;6.996;2022-11-20T00:48:40;31.02;;;25.90;;
2672;SDS011;1346;51.558;6.996;2022-11-20T00:51:07;33.08;;;25.80;;
2672;SDS011;1346;51.558;6.996;2022-11-20T00:53:34;31.65;;;25.90;;
2672;SDS011;1346;51.558;6.996;2022-11-20T00:56:01;30.85;;;26.10;;
2672;SDS011;1346;51.558;6.996;2022-11-20T00:58:32;33.10;;;27.85;;
2672;SDS011;1346;51.558;6.996;2022-11-20T01:01:00;31.73;;;28.40;;
2672;SDS011;1346;51.558;6.996;2022-11-20T01:03:30;30.45;;;26.15;;
2672;SDS011;1346;51.558;6.996;2022-11-20T01:05:59;32.03;;;27.80;;
2672;SDS011;1346;51.558;6.996;2022-11-20T01:08:28;34.25;;;27.80;;
2672;SDS011;1346;51.558;6.996;2022-11-20T01:10:58;33.05;;;27.85;;
2672;SDS011;1346;51.558;6.996;2022-11-20T01:13:27;38.33;;;28.08;;
2672;SDS011;1346;51.558;6.996;2022-11-20T01:16:05;35.47;;;29.83;;
2672;SDS011;1346;51.558;6.996;2022-11-20T01:18:35;31.88;;;26.95;;
2672;SDS011;1346;51.558;6.996;2022-11-20T01:21:03;33.63;;;27.65;;
2672;SDS011;1346;51.558;6.996;2022-11-20T01:23:33;33.47;;;27.98;;
2672;SDS011;1346;51.558;6.996;2022-11-20T01:26:02;32.38;;;25.73;;
2672;SDS011;1346;51.558;6.996;2022-11-20T01:28:31;33.20;;;27.27;;
2672;SDS011;1346;51.558;6.996;2022-11-20T01:30:59;34.50;;;27.90;;
2672;SDS011;1346;51.558;6.996;2022-11-20T01:33:28;28.52;;;25.10;;
2672;SDS011;1346;51.558;6.996;2022-11-20T01:36:02;32.97;;;25.75;;
2672;SDS011;1346;51.558;6.996;2022-11-20T01:38:30;33.78;;;26.85;;
2672;SDS011;1346;51.558;6.996;2022-11-20T01:40:57;39.10;;;28.58;;
2672;SDS011;1346;51.558;6.996;2022-11-20T01:43:24;34.63;;;26.73;;
2672;SDS011;1346;51.558;6.996;2022-11-20T01:46:01;33.30;;;27.75;;
2672;SDS011;1346;51.558;6.996;2022-11-20T01:48:44;33.78;;;27.10;;
2672;SDS011;1346;51.558;6.996;2022-11-20T01:51:20;31.15;;;27.35;;
2672;SDS011;1346;51.558;6.996;2022-11-20T01:53:55;33.67;;;27.95;;
2672;SDS011;1346;51.558;6.996;2022-11-20T01:56:26;34.83;;;27.27;;
2672;SDS011;1346;51.558;6.996;2022-11-20T01:58:56;33.70;;;27.25;;
2672;SDS011;1346;51.558;6.996;2022-11-20T02:01:25;34.10;;;27.77;;
2672;SDS011;1346;51.558;6.996;2022-11-20T02:03:54;34.20;;;28.73;;
2672;SDS011;1346;51.558;6.996;2022-11-20T02:06:22;32.80;;;27.20;;
2672;SDS011;1346;51.558;6.996;2022-11-20T02:08:53;34.00;;;28.25;;
2672;SDS011;1346;51.558;6.996;2022-11-20T02:11:21;34.15;;;28.00;;
2672;SDS011;1346;51.558;6.996;2022-11-20T02:13:48;36.92;;;28.58;;
2672;SDS011;1346;51.558;6.996;2022-11-20T02:16:16;30.70;;;27.25;;
2672;SDS011;1346;51.558;6.996;2022-11-20T02:18:47;33.17;;;27.00;;
2672;SDS011;1346;51.558;6.996;2022-11-20T02:21:17;33.60;;;28.38;;
2672;SDS011;1346;51.558;6.996;2022-11-20T02:24:06;36.30;;;30.02;;
2672;SDS011;1346;51.558;6.996;2022-11-20T02:26:38;33.17;;;28.33;;
2672;SDS011;1346;51.558;6.996;2022-11-20T02:29:11;34.75;;;28.00;;
2672;SDS011;1346;51.558;6.996;2022-11-20T02:31:39;33.45;;;29.10;;
2672;SDS011;1346;51.558;6.996;2022-11-20T02:34:08;34.67;;;28.02;;
2672;SDS011;1346;51.558;6.996;2022-11-20T02:36:35;34.63;;;27.30;;
2672;SDS011;1346;51.558;6.996;2022-11-20T02:39:06;33.63;;;26.65;;
2672;SDS011;1346;51.558;6.996;2022-11-20T02:41:34;32.42;;;27.33;;
2672;SDS011;1346;51.558;6.996;2022-11-20T02:44:03;32.47;;;26.98;;
2672;SDS011;1346;51.558;6.996;2022-11-20T02:46:31;30.75;;;26.85;;
2672;SDS011;1346;51.558;6.996;2022-11-20T02:48:59;33.30;;;26.60;;
2672;SDS011;1346;51.558;6.996;2022-11-20T02:51:27;32.85;;;27.30;;
2672;SDS011;1346;51.558;6.996;2022-11-20T02:53:54;36.38;;;29.10;;
2672;SDS011;1346;51.558;6.996;2022-11-20T02:56:23;31.08;;;25.65;;
2672;SDS011;1346;51.558;6.996;2022-11-20T02:58:50;34.58;;;28.48;;
2672;SDS011;1346;51.558;6.996;2022-11-20T03:01:17;32.22;;;28.20;;
2672;SDS011;1346;51.558;6.996;2022-11-20T03:03:44;32.85;;;27.48;;
2672;SDS011;1346;51.558;6.996;2022-11-20T03:06:13;32.72;;;25.83;;
2672;SDS011;1346;51.558;6.996;2022-11-20T03:08:40;34.55;;;28.25;;
2672;SDS011;1346;51.558;6.996;2022-11-20T03:11:07;39.88;;;29.10;;
2672;SDS011;1346;51.558;6.996;2022-11-20T03:13:36;35.90;;;28.65;;
2672;SDS011;1346;51.558;6.996;2022-11-20T03:16:06;35.42;;;29.25;;
2672;SDS011;1346;51.558;6.996;2022-11-20T03:18:36;38.17;;;29.38;;
2672;SDS011;1346;51.558;6.996;2022-11-20T03:21:04;36.67;;;28.85;;
2672;SDS011;1346;51.558;6.996;2022-11-20T03:23:31;38.33;;;29.60;;
2672;SDS011;1346;51.558;6.996;2022-11-20T03:26:08;35.15;;;29.45;;
2672;SDS011;1346;51.558;6.996;2022-11-20T03:28:39;36.03;;;30.02;;
2672;SDS011;1346;51.558;6.996;2022-11-20T03:31:07;38.50;;;30.00;;
2672;SDS011;1346;51.558;6.996;2022-11-20T03:33:36;35.72;;;28.30;;
2672;SDS011;1346;51.558;6.996;2022-11-20T03:36:03;35.40;;;28.20;;
2672;SDS011;1346;51.558;6.996;2022-11-20T03:38:32;36.83;;;30.80;;
2672;SDS011;1346;51.558;6.996;2022-11-20T03:41:00;37.63;;;30.83;;
2672;SDS011;1346;51.558;6.996;2022-11-20T03:43:29;37.35;;;30.42;;
2672;SDS011;1346;51.558;6.996;2022-11-20T03:45:57;39.28;;;33.17;;
2672;SDS011;1346;51.558;6.996;2022-11-20T03:48:24;38.38;;;31.90;;
2672;SDS011;1346;51.558;6.996;2022-11-20T03:50:52;40.10;;;32.10;;
2672;SDS011;1346;51.558;6.996;2022-11-20T03:53:31;38.30;;;30.90;;
2672;SDS011;1346;51.558;6.996;2022-11-20T03:55:58;36.90;;;31.90;;
2672;SDS011;1346;51.558;6.996;2022-11-20T03:58:25;35.55;;;30.42;;
2672;SDS011;1346;51.558;6.996;2022-11-20T04:00:52;40.00;;;31.88;;
2672;SDS011;1346;51.558;6.996;2022-11-20T04:03:20;38.00;;;30.60;;
2672;SDS011;1346;51.558;6.996;2022-11-20T04:05:47;39.30;;;30.63;;
2672;SDS011;1346;51.558;6.996;2022-11-20T04:08:14;38.50;;;29.55;;
2672;SDS011;1346;51.558;6.996;2022-11-20T04:10:41;39.00;;;30.38;;
2672;SDS011;1346;51.558;6.996;2022-11-20T04:13:08;39.08;;;29.52;;
2672;SDS011;1346;51.558;6.996;2022-11-20T04:15:34;37.78;;;29.33;;
2672;SDS011;1346;51.558;6.996;2022-11-20T04:18:01;41.28;;;30.88;;
2672;SDS011;1346;51.558;6.996;2022-11-20T04:20:30;39.20;;;31.50;;
2672;SDS011;1346;51.558;6.996;2022-11-20T04:22:57;36.33;;;30.52;;
2672;SDS011;1346;51.558;6.996;2022-11-20T04:25:23;40.42;;;31.63;;
2672;SDS011;1346;51.558;6.996;2022-11-20T04:27:50;36.85;;;30.00;;
2672;SDS011;1346;51.558;6.996;2022-11-20T04:30:17;35.58;;;30.63;;
2672;SDS011;1346;51.558;6.996;2022-11-20T04:32:44;35.90;;;29.67;;
2672;SDS011;1346;51.558;6.996;2022-11-20T04:35:11;39.55;;;29.88;;
2672;SDS011;1346;51.558;6.996;2022-11-20T04:37:39;36.58;;;28.27;;
2672;SDS011;1346;51.558;6.996;2022-11-20T04:40:06;36.42;;;27.95;;
2672;SDS011;1346;51.558;6.996;2022-11-20T04:42:34;34.83;;;27.75;;
2672;SDS011;1346;51.558;6.996;2022-11-20T04:45:01;37.40;;;29.67;;
2672;SDS011;1346;51.558;6.996;2022-11-20T04:47:27;35.78;;;28.30;;
2672;SDS011;1346;51.558;6.996;2022-11-20T04:49:54;37.55;;;29.63;;
2672;SDS011;1346;51.558;6.996;2022-11-20T04:52:21;34.45;;;28.55;;
2672;SDS011;1346;51.558;6.996;2022-11-20T04:54:49;37.58;;;29.60;;
2672;SDS011;1346;51.558;6.996;2022-11-20T04:57:18;37.03;;;29.05;;
2672;SDS011;1346;51.558;6.996;2022-11-20T04:59:45;35.05;;;28.83;;
2672;SDS011;1346;51.558;6.996;2022-11-20T05:02:12;32.15;;;26.25;;
2672;SDS011;1346;51.558;6.996;2022-11-20T05:04:39;37.55;;;29.27;;
2672;SDS011;1346;51.558;6.996;2022-11-20T05:07:06;37.50;;;29.48;;
2672;SDS011;1346;51.558;6.996;2022-11-20T05:09:33;34.42;;;27.65;;
2672;SDS011;1346;51.558;6.996;2022-11-20T05:12:01;40.45;;;30.55;;
2672;SDS011;1346;51.558;6.996;2022-11-20T05:14:28;38.63;;;29.40;;
2672;SDS011;1346;51.558;6.996;2022-11-20T05:16:55;34.03;;;28.40;;
2672;SDS011;1346;51.558;6.996;2022-11-20T05:19:22;34.58;;;28.80;;
2672;SDS011;1346;51.558;6.996;2022-11-20T05:21:49;38.78;;;29.95;;
2672;SDS011;1346;51.558;6.996;2022-11-20T05:24:15;37.17;;;30.60;;
2672;SDS011;1346;51.558;6.996;2022-11-20T05:26:42;37.78;;;29.77;;
2672;SDS011;1346;51.558;6.996;2022-11-20T05:29:11;34.72;;;27.15;;
2672;SDS011;1346;51.558;6.996;2022-11-20T05:31:38;32.90;;;28.55;;
2672;SDS011;1346;51.558;6.996;2022-11-20T05:34:06;34.75;;;29.35;;
2672;SDS011;1346;51.558;6.996;2022-11-20T05:36:34;33.05;;;28.02;;
2672;SDS011;1346;51.558;6.996;2022-11-20T05:39:00;34.30;;;28.73;;
2672;SDS011;1346;51.558;6.996;2022-11-20T05:41:28;41.92;;;29.98;;
2672;SDS011;1346;51.558;6.996;2022-11-20T05:43:55;36.90;;;28.67;;
2672;SDS011;1346;51.558;6.996;2022-11-20T05:46:25;32.65;;;27.92;;
2672;SDS011;1346;51.558;6.996;2022-11-20T05:48:52;39.40;;;30.75;;
2672;SDS011;1346;51.558;6.996;2022-11-20T05:51:19;39.20;;;30.08;;
2672;SDS011;1346;51.558;6.996;2022-11-20T05:53:46;34.72;;;30.05;;
2672;SDS011;1346;51.558;6.996;2022-11-20T05:56:14;36.22;;;27.52;;
2672;SDS011;1346;51.558;6.996;2022-11-20T05:58:42;35.20;;;29.50;;
2672;SDS011;1346;51.558;6.996;2022-11-20T06:01:11;33.50;;;29.40;;
2672;SDS011;1346;51.558;6.996;2022-11-20T06:03:45;35.38;;;29.00;;
2672;SDS011;1346;51.558;6.996;2022-11-20T06:06:12;34.45;;;29.23;;
2672;SDS011;1346;51.558;6.996;2022-11-20T06:08:41;37.60;;;29.55;;
2672;SDS011;1346;51.558;6.996;2022-11-20T06:11:09;36.97;;;29.00;;
2672;SDS011;1346;51.558;6.996;2022-11-20T06:13:38;37.22;;;29.00;;
2672;SDS011;1346;51.558;6.996;2022-11-20T06:16:06;34.05;;;29.00;;
2672;SDS011;1346;51.558;6.996;2022-11-20T06:18:33;35.40;;;30.30;;
2672;SDS011;1346;51.558;6.996;2022-11-20T06:21:03;32.97;;;27.88;;
2672;SDS011;1346;51.558;6.996;2022-11-20T06:23:32;35.42;;;29.50;;
2672;SDS011;1346;51.558;6.996;2022-11-20T06:26:01;34.95;;;29.65;;
2672;SDS011;1346;51.558;6.996;2022-11-20T06:28:29;41.90;;;31.05;;
2672;SDS011;1346;51.558;6.996;2022-11-20T06:30:56;37.85;;;30.45;;
2672;SDS011;1346;51.558;6.996;2022-11-20T06:33:23;40.25;;;29.10;;
2672;SDS011;1346;51.558;6.996;2022-11-20T06:35:50;49.25;;;31.50;;
2672;SDS011;1346;51.558;6.996;2022-11-20T06:38:19;37.22;;;31.73;;
2672;SDS011;1346;51.558;6.996;2022-11-20T06:44:25;39.67;;;30.92;;
2672;SDS011;1346;51.558;6.996;2022-11-20T06:46:52;34.13;;;29.13;;
2672;SDS011;1346;51.558;6.996;2022-11-20T06:49:19;38.88;;;31.52;;
2672;SDS011;1346;51.558;6.996;2022-11-20T06:51:46;37.35;;;30.67;;
2672;SDS011;1346;51.558;6.996;2022-11-20T06:54:14;38.00;;;31.38;;
2672;SDS011;1346;51.558;6.996;2022-11-20T06:56:41;38.28;;;30.75;;
2672;SDS011;1346;51.558;6.996;2022-11-20T06:59:07;39.45;;;30.00;;
2672;SDS011;1346;51.558;6.996;2022-11-20T07:01:34;37.63;;;31.15;;
2672;SDS011;1346;51.558;6.996;2022-11-20T07:04:01;38.97;;;30.67;;
2672;SDS011;1346;51.558;6.996;2022-11-20T07:06:28;40.17;;;33.08;;
2672;SDS011;1346;51.558;6.996;2022-11-20T07:08:55;38.47;;;32.10;;
2672;SDS011;1346;51.558;6.996;2022-11-20T07:11:24;39.53;;;31.60;;
2672;SDS011;1346;51.558;6.996;2022-11-20T07:13:51;35.30;;;30.40;;
2672;SDS011;1346;51.558;6.996;2022-11-20T07:16:18;39.63;;;32.28;;
2672;SDS011;1346;51.558;6.996;2022-11-20T07:18:44;42.78;;;33.65;;
2672;SDS011;1346;51.558;6.996;2022-11-20T07:21:11;46.72;;;36.95;;
2672;SDS011;1346;51.558;6.996;2022-11-20T07:23:38;55.42;;;42.25;;
2672;SDS011;1346;51.558;6.996;2022-11-20T07:26:05;51.72;;;41.65;;
2672;SDS011;1346;51.558;6.996;2022-11-20T07:28:34;41.85;;;34.17;;
2672;SDS011;1346;51.558;6.996;2022-11-20T07:31:02;45.13;;;33.90;;
2672;SDS011;1346;51.558;6.996;2022-11-20T07:33:31;40.63;;;33.95;;
2672;SDS011;1346;51.558;6.996;2022-11-20T07:35:59;43.85;;;36.30;;
2672;SDS011;1346;51.558;6.996;2022-11-20T07:38:26;43.72;;;34.30;;
2672;SDS011;1346;51.558;6.996;2022-11-20T07:40:53;41.42;;;33.70;;
2672;SDS011;1346;51.558;6.996;2022-11-20T07:43:22;38.92;;;33.30;;
2672;SDS011;1346;51.558;6.996;2022-11-20T07:45:51;43.40;;;34.78;;
2672;SDS011;1346;51.558;6.996;2022-11-20T07:48:20;39.55;;;34.22;;
2672;SDS011;1346;51.558;6.996;2022-11-20T07:50:47;43.50;;;35.28;;
2672;SDS011;1346;51.558;6.996;2022-11-20T07:53:14;42.33;;;35.60;;
2672;SDS011;1346;51.558;6.996;2022-11-20T07:55:45;40.65;;;34.50;;
2672;SDS011;1346;51.558;6.996;2022-11-20T07:58:12;41.97;;;34.78;;
2672;SDS011;1346;51.558;6.996;2022-11-20T08:00:39;43.60;;;35.20;;
2672;SDS011;1346;51.558;6.996;2022-11-20T08:03:08;44.20;;;35.80;;
2672;SDS011;1346;51.558;6.996;2022-11-20T08:05:34;39.88;;;35.08;;
2672;SDS011;1346;51.558;6.996;2022-11-20T08:08:02;39.28;;;33.70;;
2672;SDS011;1346;51.558;6.996;2022-11-20T08:10:29;40.95;;;33.55;;
2672;SDS011;1346;51.558;6.996;2022-11-20T08:12:56;39.50;;;34.22;;
2672;SDS011;1346;51.558;6.996;2022-11-20T08:15:41;38.95;;;32.25;;
2672;SDS011;1346;51.558;6.996;2022-11-20T08:18:16;41.58;;;34.28;;
2672;SDS011;1346;51.558;6.996;2022-11-20T08:20:43;39.58;;;34.15;;
2672;SDS011;1346;51.558;6.996;2022-11-20T08:23:10;40.50;;;33.60;;
2672;SDS011;1346;51.558;6.996;2022-11-20T08:25:37;43.58;;;35.80;;
2672;SDS011;1346;51.558;6.996;2022-11-20T08:28:05;43.15;;;34.78;;
2672;SDS011;1346;51.558;6.996;2022-11-20T08:30:34;42.47;;;35.17;;
2672;SDS011;1346;51.558;6.996;2022-11-20T08:33:03;48.10;;;39.30;;
2672;SDS011;1346;51.558;6.996;2022-11-20T08:35:33;49.95;;;40.60;;
2672;SDS011;1346;51.558;6.996;2022-11-20T08:38:01;46.95;;;37.58;;
2672;SDS011;1346;51.558;6.996;2022-11-20T08:40:28;44.95;;;36.35;;
2672;SDS011;1346;51.558;6.996;2022-11-20T08:42:55;45.55;;;37.33;;
2672;SDS011;1346;51.558;6.996;2022-11-20T08:45:22;41.47;;;34.78;;
2672;SDS011;1346;51.558;6.996;2022-11-20T08:47:49;43.72;;;37.47;;
2672;SDS011;1346;51.558;6.996;2022-11-20T08:50:16;46.30;;;38.30;;
2672;SDS011;1346;51.558;6.996;2022-11-20T08:52:45;42.97;;;34.58;;
2672;SDS011;1346;51.558;6.996;2022-11-20T08:55:12;39.40;;;33.75;;
2672;SDS011;1346;51.558;6.996;2022-11-20T08:57:38;42.60;;;34.88;;
2672;SDS011;1346;51.558;6.996;2022-11-20T09:00:06;40.63;;;35.40;;
2672;SDS011;1346;51.558;6.996;2022-11-20T09:02:36;49.20;;;38.70;;
2672;SDS011;1346;51.558;6.996;2022-11-20T09:05:03;48.55;;;41.15;;
2672;SDS011;1346;51.558;6.996;2022-11-20T09:07:31;49.53;;;38.95;;
2672;SDS011;1346;51.558;6.996;2022-11-20T09:09:59;51.20;;;39.90;;
2672;SDS011;1346;51.558;6.996;2022-11-20T09:12:26;52.67;;;39.90;;
2672;SDS011;1346;51.558;6.996;2022-11-20T09:14:53;56.60;;;42.08;;
2672;SDS011;1346;51.558;6.996;2022-11-20T09:17:20;57.75;;;42.58;;
2672;SDS011;1346;51.558;6.996;2022-11-20T09:19:47;55.30;;;41.03;;
2672;SDS011;1346;51.558;6.996;2022-11-20T09:22:13;56.00;;;43.33;;
2672;SDS011;1346;51.558;6.996;2022-11-20T09:24:40;49.95;;;38.67;;
2672;SDS011;1346;51.558;6.996;2022-11-20T09:27:09;48.95;;;39.75;;
2672;SDS011;1346;51.558;6.996;2022-11-20T09:29:35;54.05;;;40.63;;
2672;SDS011;1346;51.558;6.996;2022-11-20T09:32:02;54.38;;;40.92;;
2672;SDS011;1346;51.558;6.996;2022-11-20T09:34:31;53.83;;;41.50;;
2672;SDS011;1346;51.558;6.996;2022-11-20T09:36:57;50.92;;;36.88;;
2672;SDS011;1346;51.558;6.996;2022-11-20T09:39:24;44.28;;;36.45;;
2672;SDS011;1346;51.558;6.996;2022-11-20T09:42:04;50.00;;;37.15;;
2672;SDS011;1346;51.558;6.996;2022-11-20T09:45:06;51.58;;;39.17;;
2672;SDS011;1346;51.558;6.996;2022-11-20T09:48:02;47.90;;;37.92;;
2672;SDS011;1346;51.558;6.996;2022-11-20T09:50:56;48.40;;;37.47;;
2672;SDS011;1346;51.558;6.996;2022-11-20T09:53:34;51.00;;;37.30;;
2672;SDS011;1346;51.558;6.996;2022-11-20T09:56:10;43.33;;;34.40;;
2672;SDS011;1346;51.558;6.996;2022-11-20T09:58:39;48.35;;;35.40;;
2672;SDS011;1346;51.558;6.996;2022-11-20T10:01:10;44.17;;;32.30;;
2672;SDS011;1346;51.558;6.996;2022-11-20T10:03:44;46.03;;;36.83;;
2672;SDS011;1346;51.558;6.996;2022-11-20T10:06:21;46.38;;;38.88;;
2672;SDS011;1346;51.558;6.996;2022-11-20T10:08:58;49.25;;;38.78;;
2672;SDS011;1346;51.558;6.996;2022-11-20T10:11:43;46.60;;;39.08;;
2672;SDS011;1346;51.558;6.996;2022-11-20T10:14:26;47.20;;;36.83;;
2672;SDS011;1346;51.558;6.996;2022-11-20T10:17:08;51.45;;;39.38;;
2672;SDS011;1346;51.558;6.996;2022-11-20T10:19:53;51.78;;;39.05;;
2672;SDS011;1346;51.558;6.996;2022-11-20T10:22:35;52.05;;;35.38;;
2672;SDS011;1346;51.558;6.996;2022-11-20T10:25:20;48.45;;;34.35;;
2672;SDS011;1346;51.558;6.996;2022-11-20T10:27:56;45.42;;;34.35;;
2672;SDS011;1346;51.558;6.996;2022-11-20T10:30:44;43.67;;;32.95;;
2672;SDS011;1346;51.558;6.996;2022-11-20T10:33:15;37.33;;;28.42;;
2672;SDS011;1346;51.558;6.996;2022-11-20T10:35:48;37.28;;;25.05;;
2672;SDS011;1346;51.558;6.996;2022-11-20T10:38:21;31.83;;;22.38;;
2672;SDS011;1346;51.558;6.996;2022-11-20T10:41:01;35.88;;;24.65;;
2672;SDS011;1346;51.558;6.996;2022-11-20T10:43:44;32.65;;;23.40;;
2672;SDS011;1346;51.558;6.996;2022-11-20T10:46:14;26.08;;;19.27;;
2672;SDS011;1346;51.558;6.996;2022-11-20T10:48:47;28.10;;;20.42;;
2672;SDS011;1346;51.558;6.996;2022-11-20T10:51:30;27.50;;;20.05;;
2672;SDS011;1346;51.558;6.996;2022-11-20T10:54:12;27.88;;;20.17;;
2672;SDS011;1346;51.558;6.996;2022-11-20T10:56:50;29.20;;;20.38;;
2672;SDS011;1346;51.558;6.996;2022-11-20T10:59:31;36.25;;;24.55;;
2672;SDS011;1346;51.558;6.996;2022-11-20T11:02:19;27.48;;;21.52;;
2672;SDS011;1346;51.558;6.996;2022-11-20T11:04:49;29.88;;;21.48;;
2672;SDS011;1346;51.558;6.996;2022-11-20T11:07:19;29.95;;;20.90;;
2672;SDS011;1346;51.558;6.996;2022-11-20T11:09:50;30.27;;;21.30;;
2672;SDS011;1346;51.558;6.996;2022-11-20T11:12:21;28.90;;;22.35;;
2672;SDS011;1346;51.558;6.996;2022-11-20T11:14:51;31.55;;;21.27;;
2672;SDS011;1346;51.558;6.996;2022-11-20T11:17:22;30.17;;;19.83;;
2672;SDS011;1346;51.558;6.996;2022-11-20T11:19:57;27.50;;;19.05;;
2672;SDS011;1346;51.558;6.996;2022-11-20T11:22:25;29.25;;;22.25;;
2672;SDS011;1346;51.558;6.996;2022-11-20T11:24:56;33.53;;;23.63;;
2672;SDS011;1346;51.558;6.996;2022-11-20T11:27:23;30.65;;;22.83;;
2672;SDS011;1346;51.558;6.996;2022-11-20T11:29:50;32.63;;;22.50;;
2672;SDS011;1346;51.558;6.996;2022-11-20T11:32:40;31.80;;;22.65;;
2672;SDS011;1346;51.558;6.996;2022-11-20T11:35:18;33.25;;;24.40;;
2672;SDS011;1346;51.558;6.996;2022-11-20T11:37:51;30.27;;;23.70;;
2672;SDS011;1346;51.558;6.996;2022-11-20T11:40:28;32.50;;;23.35;;
2672;SDS011;1346;51.558;6.996;2022-11-20T11:42:57;31.30;;;21.40;;
2672;SDS011;1346;51.558;6.996;2022-11-20T11:45:27;30.98;;;20.25;;
2672;SDS011;1346;51.558;6.996;2022-11-20T11:47:55;28.67;;;21.08;;
2672;SDS011;1346;51.558;6.996;2022-11-20T11:50:25;33.42;;;23.08;;
2672;SDS011;1346;51.558;6.996;2022-11-20T11:52:56;32.80;;;24.30;;
2672;SDS011;1346;51.558;6.996;2022-11-20T11:55:35;30.23;;;22.92;;
2672;SDS011;1346;51.558;6.996;2022-11-20T11:58:14;30.65;;;21.58;;
2672;SDS011;1346;51.558;6.996;2022-11-20T12:00:54;32.80;;;20.98;;
2672;SDS011;1346;51.558;6.996;2022-11-20T12:03:29;32.63;;;20.90;;
2672;SDS011;1346;51.558;6.996;2022-11-20T12:06:04;31.08;;;22.27;;
2672;SDS011;1346;51.558;6.996;2022-11-20T12:08:39;32.95;;;20.38;;
2672;SDS011;1346;51.558;6.996;2022-11-20T12:11:15;33.38;;;23.42;;
2672;SDS011;1346;51.558;6.996;2022-11-20T12:14:00;35.55;;;23.77;;
2672;SDS011;1346;51.558;6.996;2022-11-20T12:16:36;30.25;;;20.83;;
2672;SDS011;1346;51.558;6.996;2022-11-20T12:19:08;35.33;;;24.73;;
2672;SDS011;1346;51.558;6.996;2022-11-20T12:21:43;32.78;;;22.15;;
2672;SDS011;1346;51.558;6.996;2022-11-20T12:24:27;29.42;;;22.65;;
2672;SDS011;1346;51.558;6.996;2022-11-20T12:27:31;30.15;;;22.00;;
2672;SDS011;1346;51.558;6.996;2022-11-20T12:30:19;40.97;;;28.15;;
2672;SDS011;1346;51.558;6.996;2022-11-20T12:32:53;34.35;;;25.50;;
2672;SDS011;1346;51.558;6.996;2022-11-20T12:35:47;38.70;;;24.45;;
2672;SDS011;1346;51.558;6.996;2022-11-20T12:38:37;33.85;;;23.45;;
2672;SDS011;1346;51.558;6.996;2022-11-20T12:41:22;39.00;;;25.40;;
2672;SDS011;1346;51.558;6.996;2022-11-20T12:44:32;32.85;;;24.00;;
2672;SDS011;1346;51.558;6.996;2022-11-20T12:47:44;35.58;;;23.90;;
2672;SDS011;1346;51.558;6.996;2022-11-20T12:50:29;33.97;;;22.85;;
2672;SDS011;1346;51.558;6.996;2022-11-20T12:53:10;32.10;;;23.10;;
2672;SDS011;1346;51.558;6.996;2022-11-20T12:55:53;36.10;;;22.98;;
2672;SDS011;1346;51.558;6.996;2022-11-20T12:58:31;32.78;;;23.15;;
2672;SDS011;1346;51.558;6.996;2022-11-20T13:01:20;34.17;;;23.98;;
2672;SDS011;1346;51.558;6.996;2022-11-20T13:04:13;32.28;;;22.88;;
2672;SDS011;1346;51.558;6.996;2022-11-20T13:06:58;32.92;;;22.02;;
2672;SDS011;1346;51.558;6.996;2022-11-20T13:09:31;37.63;;;24.27;;
2672;SDS011;1346;51.558;6.996;2022-11-20T13:12:03;32.53;;;22.83;;
2672;SDS011;1346;51.558;6.996;2022-11-20T13:14:34;36.13;;;26.13;;
2672;SDS011;1346;51.558;6.996;2022-11-20T13:17:09;34.45;;;22.00;;
2672;SDS011;1346;51.558;6.996;2022-11-20T13:19:52;36.92;;;23.58;;
2672;SDS011;1346;51.558;6.996;2022-11-20T13:22:24;34.53;;;21.40;;
2672;SDS011;1346;51.558;6.996;2022-11-20T13:24:53;29.25;;;20.90;;
2672;SDS011;1346;51.558;6.996;2022-11-20T13:27:20;32.80;;;20.65;;
2672;SDS011;1346;51.558;6.996;2022-11-20T13:29:58;34.47;;;23.92;;
2672;SDS011;1346;51.558;6.996;2022-11-20T13:32:47;31.95;;;21.63;;
2672;SDS011;1346;51.558;6.996;2022-11-20T13:35:23;32.95;;;21.90;;
2672;SDS011;1346;51.558;6.996;2022-11-20T13:38:03;33.42;;;22.67;;
2672;SDS011;1346;51.558;6.996;2022-11-20T13:40:37;30.10;;;20.33;;
2672;SDS011;1346;51.558;6.996;2022-11-20T13:43:19;33.50;;;19.70;;
2672;SDS011;1346;51.558;6.996;2022-11-20T13:45:58;30.75;;;18.48;;
2672;SDS011;1346;51.558;6.996;2022-11-20T13:48:29;30.48;;;19.17;;
2672;SDS011;1346;51.558;6.996;2022-11-20T13:51:02;31.02;;;18.98;;
2672;SDS011;1346;51.558;6.996;2022-11-20T13:57:08;28.55;;;19.10;;
2672;SDS011;1346;51.558;6.996;2022-11-20T14:00:07;29.60;;;19.75;;
2672;SDS011;1346;51.558;6.996;2022-11-20T14:02:38;33.83;;;19.88;;
2672;SDS011;1346;51.558;6.996;2022-11-20T14:05:11;27.02;;;18.30;;
2672;SDS011;1346;51.558;6.996;2022-11-20T14:07:46;33.83;;;19.35;;
2672;SDS011;1346;51.558;6.996;2022-11-20T14:10:20;28.23;;;18.05;;
2672;SDS011;1346;51.558;6.996;2022-11-20T14:12:51;29.20;;;19.30;;
2672;SDS011;1346;51.558;6.996;2022-11-20T14:15:25;34.53;;;19.25;;
2672;SDS011;1346;51.558;6.996;2022-11-20T14:17:55;28.52;;;20.08;;
2672;SDS011;1346;51.558;6.996;2022-11-20T14:20:23;26.90;;;18.60;;
2672;SDS011;1346;51.558;6.996;2022-11-20T14:22:53;27.77;;;19.35;;
2672;SDS011;1346;51.558;6.996;2022-11-20T14:25:21;30.58;;;19.13;;
2672;SDS011;1346;51.558;6.996;2022-11-20T14:27:54;33.90;;;21.17;;
2672;SDS011;1346;51.558;6.996;2022-11-20T14:30:24;35.80;;;20.65;;
2672;SDS011;1346;51.558;6.996;2022-11-20T14:32:54;34.42;;;21.02;;
2672;SDS011;1346;51.558;6.996;2022-11-20T14:35:27;32.28;;;22.17;;
2672;SDS011;1346;51.558;6.996;2022-11-20T14:37:57;40.33;;;22.23;;
2672;SDS011;1346;51.558;6.996;2022-11-20T14:40:26;34.83;;;22.15;;
2672;SDS011;1346;51.558;6.996;2022-11-20T14:42:57;37.00;;;21.45;;
2672;SDS011;1346;51.558;6.996;2022-11-20T14:45:25;29.63;;;20.23;;
2672;SDS011;1346;51.558;6.996;2022-11-20T14:47:54;29.85;;;20.27;;
2672;SDS011;1346;51.558;6.996;2022-11-20T14:50:24;29.10;;;20.15;;
2672;SDS011;1346;51.558;6.996;2022-11-20T14:52:53;33.08;;;20.10;;
2672;SDS011;1346;51.558;6.996;2022-11-20T14:55:25;30.58;;;19.80;;
2672;SDS011;1346;51.558;6.996;2022-11-20T14:57:55;31.05;;;20.55;;
2672;SDS011;1346;51.558;6.996;2022-11-20T15:00:26;32.97;;;20.02;;
2672;SDS011;1346;51.558;6.996;2022-11-20T15:02:53;34.50;;;22.67;;
2672;SDS011;1346;51.558;6.996;2022-11-20T15:05:21;30.92;;;20.38;;
2672;SDS011;1346;51.558;6.996;2022-11-20T15:07:50;34.22;;;22.08;;
2672;SDS011;1346;51.558;6.996;2022-11-20T15:10:30;34.90;;;21.75;;
2672;SDS011;1346;51.558;6.996;2022-11-20T15:12:59;34.42;;;20.73;;
2672;SDS011;1346;51.558;6.996;2022-11-20T15:15:29;30.88;;;20.70;;
2672;SDS011;1346;51.558;6.996;2022-11-20T15:18:01;31.10;;;20.80;;
2672;SDS011;1346;51.558;6.996;2022-11-20T15:20:30;35.22;;;22.38;;